• Join FlightAware (Why Join?)
  • Login
  • US Flag 
09:34PM EST


 

Airport Tracker/Info


-or-


 

Live Flight TrackerFlight Track Log ✈ TAM3763 ✈ 20-Dec-2013 ✈ SBSP / CGH - SBLO / LDB

Flight Track Log - Related Links

Times and Time Zones

All times are in EST time to prevent confusion due to time zone crossing. See the TAM3763 flight status page for this flight to view local times or setup timezone preferences in your user account.

Time Position Orientation Groundspeed Altitude Reporting Facility
EST Latitude Longitude Course Direction KTS MPH feet Rate Location/Type
04:08AM -23.4959 -48.8985 273° West  Level Estimated
04:09AM -23.4902 -48.9846 274° West  Level Estimated
04:10AM -23.4845 -49.0708 274° West  Level Estimated
04:11AM -23.4788 -49.1570 274° West  Level Estimated
04:12AM -23.4729 -49.2431 274° West  Level Estimated
04:13AM -23.4671 -49.3293 274° West  Level Estimated
04:14AM -23.4612 -49.4154 274° West  Level Estimated
04:15AM -23.4552 -49.5015 274° West  Level Estimated
04:16AM -23.4492 -49.5877 274° West  Level Estimated
04:17AM -23.4432 -49.6738 274° West  Level Estimated
04:18AM -23.4371 -49.7599 274° West  Level Estimated
04:19AM -23.4309 -49.8460 274° West  Level Estimated
04:20AM -23.4247 -49.9321 274° West  Level Estimated
04:21AM -23.4185 -50.0182 274° West  Level Estimated
04:22AM -23.4122 -50.1043 275° West  Level Estimated
04:23AM -23.4059 -50.1903 275° West  Level Estimated
04:24AM -23.3995 -50.2764 275° West  Level Estimated
04:25AM -23.3931 -50.3624 275° West  Level Estimated
04:26AM -23.3866 -50.4485 275° West  Level Estimated
04:27AM -23.3801 -50.5345 275° West  Level Estimated
04:28AM -23.3735 -50.6206 275° West  Level Estimated
04:29AM -23.3669 -50.7066 275° West  Level Estimated
04:30AM -23.3602 -50.7926 275° West  Level Estimated
04:31AM -23.3535 -50.8786 275° West  Level Estimated
04:32AM -23.3468 -50.9646 275° West  Level Estimated
04:33AM -23.3400 -51.0506 275° West  Level Estimated
04:34AM -23.3336 -51.1301 275° West  Level Estimated
04:35AM -23.3336 -51.1301 340° North  Level Estimated
04:36AM -23.3336 -51.1301 200° South  Level Estimated
04:37AM -23.3336 -51.1301 340° North  Level Estimated
04:38AM -23.3336 -51.1301 200° South  Level Estimated
04:39AM -23.3336 -51.1301 340° North  Level Estimated
04:40AM -23.3336 -51.1301 200° South  Level Estimated
04:41AM -23.3336 -51.1301 340° North  Level Estimated
04:42AM -23.3336 -51.1301 200° South  Level Estimated
04:43AM -23.3336 -51.1301 340° North  Level Estimated
04:44AM -23.3336 -51.1301 200° South  Level Estimated
04:45AM -23.3336 -51.1301 340° North  Level Estimated
04:46AM -23.3336 -51.1301 200° South  Level Estimated
04:47AM -23.3336 -51.1301 340° North  Level Estimated
04:48AM -23.3336 -51.1301 200° South  Level Estimated
04:49AM -23.3336 -51.1301 340° North  Level Estimated
04:50AM -23.3336 -51.1301 200° South  Level Estimated